Latest Weather Observations for Leinster

IDW60801

Issued at 10:03 pm WST Wednesday 8 July 2020 (issued every 10 minutes, with the page automatically refreshed every 10 minutes)

About weather observations | Map of weather stations | Latest weather observations for WA | Other Formats
Station Details ID: 012314 Name: LEINSTER AERO Lat: -27.84 Lon: 120.70 Height: 497.0 m
Data from the previous 72 hours. | See also: Recent months at Leinster
Date/Time
WST
Temp
°C
App
Temp
°C
Dew
Point
°C
Rel
Hum
%
Delta-T
°C
Wind Press
QNH
hPa
Press
MSL
hPa
Rain since
9am
mm
Dir  Spd
km/h
Gust
km/h
Spd
kts
Gust
kts
08/10:00pm 13.2 8.7 2.1 47 5.0 S 15 20 8 11 1020.8 1020.5 0.0
08/09:30pm 13.4 9.4 2.9 49 4.8 S 13 20 7 11 1020.7 1020.4 0.0
08/09:00pm 13.6 9.7 3.4 50 4.7 S 13 17 7 9 1020.8 1020.5 0.0
08/08:30pm 14.0 10.1 3.5 49 4.9 SSE 13 17 7 9 1020.8 1020.5 0.0
08/08:00pm 14.3 11.2 3.5 48 5.0 S 9 13 5 7 1020.9 1020.6 0.0
08/07:30pm 14.6 11.5 3.4 47 5.2 SSE 9 9 5 5 1020.6 1020.2 0.0
08/07:00pm 15.6 12.1 3.4 44 5.7 S 11 11 6 6 1020.6 1020.2 0.0
08/06:30pm 16.6 13.1 3.7 42 6.1 S 11 13 6 7 1020.2 1019.9 0.0
08/06:00pm 17.4 13.9 3.7 40 6.5 S 11 15 6 8 1019.8 1019.5 0.0
08/05:30pm 18.3 14.5 3.8 38 7.0 S 13 17 7 9 1019.5 1019.2 0.0
08/05:00pm 19.0 14.5 4.0 37 7.3 SSE 17 20 9 11 1019.1 1018.8 0.0
08/04:30pm 19.6 15.8 3.7 35 7.7 S 13 17 7 9 1019.2 1018.9 0.0
08/04:00pm 20.0 16.2 4.1 35 7.8 SSW 13 17 7 9 1019.1 1018.8 0.0
08/03:30pm 20.0 16.2 3.7 34 8.0 S 13 19 7 10 1019.0 1018.7 0.0
08/03:00pm 20.0 16.2 3.7 34 7.9 S 13 20 7 11 1018.9 1018.5 0.0
08/02:30pm 20.3 16.1 3.9 34 8.1 SSE 15 22 8 12 1019.1 1018.8 0.0
08/02:00pm 19.8 16.4 3.9 35 7.8 ESE 11 19 6 10 1019.3 1019.0 0.0
08/01:30pm 19.8 16.8 3.9 35 7.8 SSE 9 19 5 10 1019.7 1019.4 0.0
08/01:00pm 19.3 15.9 3.9 36 7.5 SE 11 20 6 11 1020.1 1019.8 0.0
08/12:30pm 18.9 15.9 3.9 37 7.3 SE 9 17 5 9 1020.7 1020.4 0.0
08/12:00pm 17.8 14.3 3.7 39 6.8 S 11 19 6 10 1021.2 1020.9 0.0
08/11:30am 17.7 14.2 3.6 39 6.8 ESE 11 17 6 9 1021.9 1021.6 0.0
08/11:00am 16.6 12.7 3.3 41 6.3 SE 13 20 7 11 1022.4 1022.2 0.0
08/10:30am 15.6 11.7 3.4 44 5.7 SSE 13 19 7 10 1022.8 1022.5 0.0
08/10:00am 14.7 10.0 3.2 46 5.3 SE 17 22 9 12 1023.1 1022.8 0.0
08/09:30am 13.7 8.5 3.5 50 4.7 SE 20 24 11 13 1023.3 1023.0 0.0
08/09:00am 12.0 6.9 3.3 55 3.9 SE 19 24 10 13 1023.3 1023.0 0.0
08/08:30am 11.5 6.8 3.0 56 3.8 SSE 17 24 9 13 1023.2 1022.9 0.0
08/08:00am 10.8 6.8 3.1 59 3.4 SSE 13 20 7 11 1023.1 1022.8 0.0
08/07:30am 10.0 6.8 3.1 62 3.1 SSE 9 15 5 8 1022.8 1022.5 0.0
08/07:00am 9.4 6.6 2.9 64 2.9 S 7 11 4 6 1022.4 1022.2 0.0
08/06:30am 9.4 6.6 2.9 64 2.9 S 7 11 4 6 1022.1 1021.8 0.0
08/06:00am 8.5 5.6 2.5 66 2.6 SSE 7 11 4 6 1022.1 1021.8 0.0
08/05:30am 8.9 6.1 2.9 66 2.6 SSE 7 9 4 5 1021.8 1021.5 0.0
08/05:00am 9.5 6.8 3.5 66 2.7 ESE 7 9 4 5 1021.7 1021.4 0.0
08/04:30am 9.4 6.6 3.2 65 2.8 SE 7 9 4 5 1021.9 1021.6 0.0
08/04:00am 9.7 6.9 3.4 65 2.8 SSE 7 9 4 5 1022.1 1021.8 0.0
08/03:30am 9.7 7.5 3.2 64 2.9 E 4 7 2 4 1022.1 1021.8 0.0
08/03:00am 10.3 7.2 3.6 63 3.0 SE 9 13 5 7 1021.9 1021.6 0.0
08/02:30am 10.4 7.4 4.1 65 2.9 SSE 9 11 5 6 1022.0 1021.7 0.0
08/02:00am 9.7 7.0 3.7 66 2.7 SSE 7 9 4 5 1022.0 1021.7 0.0
08/01:30am 10.4 8.0 4.1 65 2.9 SE 6 7 3 4 1022.1 1021.8 0.0
08/01:00am 11.4 9.2 5.3 66 2.9 SSE 6 7 3 4 1021.8 1021.5 0.0
08/12:30am 11.7 9.2 4.7 62 3.3 SSE 7 9 4 5 1021.9 1021.6 0.0
08/12:00am 12.8 10.5 5.5 61 3.5 ESE 7 9 4 5 1021.8 1021.5 0.0
 
Date/Time
WST
Temp
°C
App
Temp
°C
Dew
Point
°C
Rel
Hum
%
Delta-T
°C
Wind Press
QNH
hPa
Press
MSL
hPa
Rain since
9am
mm
Dir  Spd
km/h
Gust
km/h
Spd
kts
Gust
kts
07/11:30pm 13.5 10.8 5.7 59 3.8 SE 9 13 5 7 1021.9 1021.6 0.0
07/11:00pm 14.2 11.5 5.8 57 4.1 SSE 9 13 5 7 1021.9 1021.6 0.0
07/10:30pm 14.6 11.5 5.7 55 4.3 SSE 11 13 6 7 1021.9 1021.6 0.0
07/10:00pm 15.4 12.1 6.2 54 4.6 SSE 13 17 7 9 1021.9 1021.6 0.0
07/09:30pm 16.0 13.0 6.2 52 4.9 S 11 17 6 9 1021.9 1021.6 0.0
07/09:00pm 16.4 14.0 6.8 53 4.8 S 9 11 5 6 1021.8 1021.5 0.0
07/08:30pm 16.7 14.4 7.4 54 4.8 S 9 13 5 7 1021.7 1021.4 0.0
07/08:00pm 17.3 15.4 7.4 52 5.1 S 7 9 4 5 1021.7 1021.4 0.0
07/07:30pm 18.0 15.8 7.7 51 5.4 S 9 19 5 10 1021.6 1021.3 0.0
07/07:00pm 19.0 16.7 7.4 47 6.0 SSE 9 11 5 6 1021.3 1021.0 0.0
07/06:30pm 18.7 17.5 6.5 45 6.2 SW 2 6 1 3 1021.2 1020.9 0.0
07/06:00pm 19.9 19.3 7.3 44 6.6 CALM 0 0 0 0 1020.7 1020.4 0.0
07/05:30pm 21.3 19.4 7.5 41 7.3 WNW 7 9 4 5 1020.4 1020.0 0.0
07/05:00pm 22.4 20.1 7.4 38 8.0 WNW 9 13 5 7 1020.1 1019.8 0.0
07/04:30pm 23.0 20.0 7.5 37 8.3 WNW 13 17 7 9 1019.9 1019.6 0.0
07/04:00pm 23.0 20.0 7.5 37 8.3 W 13 20 7 11 1020.0 1019.7 0.0
07/03:30pm 23.5 20.5 7.6 36 8.5 WNW 13 19 7 10 1020.1 1019.8 0.0
07/03:00pm 22.8 19.5 8.1 39 7.9 WNW 15 22 8 12 1020.1 1019.8 0.0
07/02:30pm 22.8 19.8 7.8 38 8.0 W 13 22 7 12 1020.2 1019.9 0.0
07/02:00pm 23.5 21.0 8.4 38 8.2 NW 11 33 6 18 1020.4 1020.0 0.0
07/01:30pm 22.9 21.3 8.2 39 7.9 NE 6 13 3 7 1020.7 1020.4 0.0
07/01:00pm 21.9 20.1 8.1 41 7.4 SE 7 11 4 6 1021.1 1020.8 0.0
07/12:30pm 20.9 18.8 8.2 44 6.8 SW 9 13 5 7 1021.7 1021.4 0.0
07/12:00pm 20.4 18.9 8.4 46 6.4 SSW 6 11 3 6 1022.2 1021.9 0.0
07/11:30am 19.4 17.8 7.8 47 6.1 SSE 6 9 3 5 1022.8 1022.5 0.0
07/11:00am 18.6 16.7 7.7 49 5.7 SSE 7 13 4 7 1023.2 1022.9 0.0
07/10:30am 18.2 16.0 7.9 51 5.4 SE 9 11 5 6 1023.6 1023.3 0.0
07/10:00am 16.9 15.1 8.1 56 4.6 ESE 7 11 4 6 1023.9 1023.6 0.0
07/09:30am 15.9 14.6 10.0 68 3.2 SE 7 11 4 6 1024.0 1023.7 0.0
07/09:00am 14.3 13.7 11.8 85 1.4 SSE 6 9 3 5 1024.0 1023.7 0.0
07/08:30am 12.7 11.9 11.8 94 0.5 S 7 9 4 5 1023.8 1023.5 0.0
07/08:00am 11.5 11.8 11.0 97 0.3 CALM 0 0 0 0 1023.6 1023.3 0.0
07/07:52am 11.4 11.8 11.1 98 0.2 CALM 0 0 0 0 1023.5 1023.2 0.0
07/07:34am 10.4 10.1 10.1 98 0.2 SSE 2 6 1 3 1023.4 1023.1 0.0
07/07:30am 10.1 9.7 9.8 98 0.2 SSW 2 6 1 3 1023.4 1023.1 0.0
07/07:00am 8.8 8.5 8.5 98 0.1 CALM 0 0 0 0 1023.1 1022.8 0.0
07/06:30am 8.7 8.3 8.4 98 0.1 CALM 0 0 0 0 1022.9 1022.6 0.0
07/06:00am 9.0 8.7 8.7 98 0.1 CALM 0 0 0 0 1022.7 1022.4 0.0
07/05:30am 8.8 7.1 7.7 93 0.5 SW 6 7 3 4 1022.3 1022.0 0.0
07/05:00am 9.8 8.9 9.2 96 0.3 ESE 4 6 2 3 1022.2 1021.9 0.0
07/04:30am 10.8 10.6 10.3 97 0.3 ESE 2 7 1 4 1022.1 1021.8 0.0
07/04:00am 10.3 10.2 9.5 95 0.4 CALM 0 6 0 3 1022.0 1021.7 0.0
07/03:30am 10.8 9.9 9.1 89 0.9 SSE 4 6 2 3 1022.0 1021.7 0.0
07/03:00am 12.1 11.0 10.0 87 1.1 SSE 6 9 3 5 1021.9 1021.6 0.0
07/02:30am 12.4 10.9 9.2 81 1.7 SSE 7 9 4 5 1021.9 1021.6 0.0
07/02:00am 12.8 11.4 9.4 80 1.8 SSE 7 9 4 5 1021.9 1021.6 0.0
07/01:30am 12.2 11.0 8.1 76 2.1 SSW 4 6 2 3 1022.0 1021.7 0.0
07/01:00am 13.6 11.7 8.9 73 2.4 S 9 11 5 6 1022.0 1021.7 0.0
07/12:30am 14.3 12.0 8.9 70 2.8 S 11 15 6 8 1021.6 1021.3 0.0
07/12:00am 14.5 11.5 6.1 57 4.1 SSW 11 13 6 7 1021.8 1021.5 0.0
 
Date/Time
WST
Temp
°C
App
Temp
°C
Dew
Point
°C
Rel
Hum
%
Delta-T
°C
Wind Press
QNH
hPa
Press
MSL
hPa
Rain since
9am
mm
Dir  Spd
km/h
Gust
km/h
Spd
kts
Gust
kts
06/11:30pm 14.7 11.3 1.6 41 5.9 SW 9 11 5 6 1021.8 1021.5 0.0
06/11:00pm 15.2 11.8 -0.9 33 6.8 W 7 11 4 6 1021.8 1021.5 0.0
06/10:30pm 16.1 12.6 -1.0 31 7.3 NW 7 9 4 5 1021.7 1021.4 0.0
06/10:00pm 17.8 12.5 -0.5 29 8.0 WSW 17 26 9 14 1021.9 1021.6 0.0
06/09:30pm 18.6 13.4 -0.2 28 8.4 N 17 20 9 11 1021.1 1020.8 0.0
06/09:00pm 18.4 13.2 0.1 29 8.2 N 17 20 9 11 1020.9 1020.6 0.0
06/08:30pm 18.3 13.5 0.0 29 8.2 N 15 19 8 10 1020.9 1020.6 0.0
06/08:00pm 18.4 13.5 -0.4 28 8.3 N 15 19 8 10 1020.9 1020.6 0.0
06/07:30pm 18.6 13.7 -0.2 28 8.4 N 15 20 8 11 1020.8 1020.5 0.0
06/07:00pm 18.9 14.0 -0.5 27 8.6 N 15 20 8 11 1020.7 1020.4 0.0
06/06:30pm 19.5 13.7 0.0 27 8.8 N 20 28 11 15 1020.4 1020.0 0.0
06/06:00pm 20.1 15.0 0.5 27 9.0 N 17 20 9 11 1020.0 1019.7 0.0
06/05:30pm 20.6 16.2 0.4 26 9.3 N 13 17 7 9 1019.7 1019.4 0.0
06/05:00pm 21.6 16.9 0.8 25 9.7 N 15 20 8 11 1019.5 1019.2 0.0
06/04:30pm 22.4 16.8 1.4 25 10.0 N 20 28 11 15 1019.2 1018.9 0.0
06/04:00pm 22.5 16.5 0.9 24 10.2 NNW 22 30 12 16 1019.2 1018.9 0.0
06/03:30pm 22.1 15.9 0.0 23 10.2 N 22 30 12 16 1019.4 1019.1 0.0
06/03:00pm 22.5 16.8 0.4 23 10.3 NNW 20 30 11 16 1019.8 1019.5 0.0
06/02:30pm 22.1 15.6 0.0 23 10.2 NNW 24 32 13 17 1019.9 1019.6 0.0
06/02:00pm 22.2 16.1 0.1 23 10.2 NNW 22 32 12 17 1020.0 1019.7 0.0
06/01:30pm 22.8 16.3 0.0 22 10.6 NW 24 35 13 19 1020.6 1020.2 0.0
06/01:00pm 23.4 16.5 -0.1 21 10.9 NNW 26 35 14 19 1020.8 1020.5 0.0
06/12:30pm 21.9 15.7 -0.1 23 10.1 NNW 22 28 12 15 1021.3 1021.0 0.0
06/12:00pm 21.6 15.0 -0.4 23 10.0 NNW 24 35 13 19 1022.0 1021.7 0.0
06/11:30am 20.7 14.1 -0.6 24 9.6 NNW 24 33 13 18 1022.3 1022.0 0.0
06/11:00am 20.4 13.4 -0.3 25 9.3 NNW 26 35 14 19 1022.3 1022.0 0.0
06/10:30am 20.0 13.1 -0.1 26 9.1 N 26 37 14 20 1022.4 1022.2 0.0
06/10:00am 19.2 13.0 -0.2 27 8.7 N 22 32 12 17 1022.4 1022.2 0.0
06/09:30am 18.3 11.8 0.4 30 8.1 N 24 32 13 17 1022.7 1022.4 0.0
06/09:00am 17.3 11.6 0.5 32 7.5 N 20 30 11 16 1022.6 1022.3 0.0
06/08:30am 16.7 11.0 0.4 33 7.3 N 20 30 11 16 1022.4 1022.2 0.0
06/08:00am 16.2 10.1 0.3 34 7.0 N 22 32 12 17 1022.2 1021.9 0.0
06/07:30am 16.0 9.9 0.6 35 6.8 N 22 30 12 16 1022.0 1021.7 0.0
06/07:00am 15.9 10.8 0.5 35 6.8 N 17 24 9 13 1022.0 1021.7 0.0
06/06:30am 15.1 11.4 -0.2 35 6.6 NNW 9 11 5 6 1022.1 1021.8 0.0
06/06:00am 15.4 10.1 -0.4 34 6.8 NW 17 30 9 16 1021.5 1021.2 0.0
06/05:30am 15.8 10.1 -0.4 33 7.0 N 19 30 10 16 1020.5 1020.1 0.0
06/05:00am 16.4 10.8 -0.3 32 7.3 N 19 26 10 14 1020.4 1020.0 0.0
06/04:30am 15.9 11.5 0.1 34 6.9 NNE 13 17 7 9 1020.1 1019.8 0.0
06/04:00am 16.1 11.2 -0.2 33 7.1 N 15 20 8 11 1020.0 1019.7 0.0
06/03:30am 15.8 10.2 0.0 34 6.9 NNE 19 26 10 14 1019.9 1019.6 0.0
06/03:00am 16.6 10.9 0.3 33 7.2 N 20 28 11 15 1019.7 1019.4 0.0
06/02:30am 16.7 11.2 0.4 33 7.3 NNE 19 28 10 15 1019.6 1019.3 0.0
06/02:00am 17.2 11.1 0.4 32 7.5 NNE 22 28 12 15 1019.4 1019.1 0.0
06/01:30am 17.2 11.7 0.8 33 7.4 NNE 19 26 10 14 1019.5 1019.2 0.0
06/01:00am 17.1 12.0 0.7 33 7.3 NNE 17 20 9 11 1019.8 1019.5 0.0
06/12:30am 16.7 12.0 1.2 35 7.0 NNE 15 19 8 10 1019.8 1019.5 0.0
06/12:00am 16.2 11.9 1.1 36 6.8 NNE 13 19 7 10 1019.9 1019.6 0.0
 
Date/Time
WST
Temp
°C
App
Temp
°C
Dew
Point
°C
Rel
Hum
%
Delta-T
°C
Wind Press
QNH
hPa
Press
MSL
hPa
Rain since
9am
mm
Dir  Spd
km/h
Gust
km/h
Spd
kts
Gust
kts
05/11:30pm 16.6 12.3 1.1 35 7.0 NNE 13 17 7 9 1020.2 1019.9 0.0
05/11:00pm 17.3 13.1 1.7 35 7.1 NNE 13 17 7 9 1020.4 1020.0 0.0
05/10:30pm 17.8 14.0 1.7 34 7.4 NNE 11 15 6 8 1020.5 1020.1 0.0

Other formats

Comma delimited format used in spreadsheet applications
http://www.bom.gov.au/fwo/IDW60801/IDW60801.95448.axf

JavaScript Object Notation format (JSON) in row-major order
http://www.bom.gov.au/fwo/IDW60801/IDW60801.95448.json

Data quality

Most of these data are generated automatically and are frequently updated. Quality checks on data are not normally performed. It is possible for incorrect values to appear. Refer to information at About Latest Weather Observations and please check the disclaimer before using these data.